Time;durP1;ratioP1;P1;durP2;ratioP2;P2;SDS_P1;SDS_P2;PMS_P1;PMS_P2;Temp;Humidity;BMP_temperature;BMP_pressure;BME280_temperature;BME280_humidity;BME280_pressure;Samples;Min_cycle;Max_cycle;Signal;HPM_P1;HPM_P2
2022/07/30 00:00:15;;;;;;;10.27;2.80;;;;;;;;;;5081839;27;20330;-52
2022/07/30 00:02:41;;;;;;;6.97;2.45;;;;;;;;;;5076373;27;20227;-53
2022/07/30 00:05:08;;;;;;;4.25;2.30;;;;;;;;;;5082323;27;20735;-52
2022/07/30 00:07:36;;;;;;;4.88;2.75;;;;;;;;;;5080655;27;20235;-51
2022/07/30 00:10:03;;;;;;;3.42;1.98;;;;;;;;;;5082591;27;20246;-53
2022/07/30 00:12:29;;;;;;;2.95;2.13;;;;;;;;;;5077718;27;20230;-51
2022/07/30 00:14:55;;;;;;;2.28;2.08;;;;;;;;;;5079054;27;20234;-52
2022/07/30 00:17:22;;;;;;;4.30;2.55;;;;;;;;;;5075593;27;20239;-51
2022/07/30 00:19:48;;;;;;;3.85;2.75;;;;;;;;;;5080680;27;20238;-52
2022/07/30 00:22:14;;;;;;;3.67;2.22;;;;;;;;;;5079598;27;20234;-52
2022/07/30 00:24:42;;;;;;;4.65;2.63;;;;;;;;;;5075738;27;20723;-52
2022/07/30 00:27:08;;;;;;;3.97;2.33;;;;;;;;;;5080038;27;20244;-52
2022/07/30 00:29:35;;;;;;;4.60;2.33;;;;;;;;;;5077260;27;20230;-53
2022/07/30 00:32:01;;;;;;;2.67;2.40;;;;;;;;;;5073889;27;20242;-52
2022/07/30 00:34:27;;;;;;;3.55;2.33;;;;;;;;;;5076823;28;20233;-52
2022/07/30 00:36:54;;;;;;;3.17;2.10;;;;;;;;;;5080249;27;20230;-52
2022/07/30 00:39:20;;;;;;;3.08;2.55;;;;;;;;;;5081530;28;20235;-53
2022/07/30 00:41:55;;;;;;;2.80;2.05;;;;;;;;;;5078394;27;20235;-52
2022/07/30 00:44:21;;;;;;;3.63;2.83;;;;;;;;;;5071748;27;20273;-52
2022/07/30 00:46:48;;;;;;;4.18;2.20;;;;;;;;;;5077707;27;21656;-52
2022/07/30 00:49:14;;;;;;;2.70;2.10;;;;;;;;;;5073872;27;20236;-53
2022/07/30 00:51:41;;;;;;;4.97;2.83;;;;;;;;;;5075270;27;20231;-53
2022/07/30 00:54:07;;;;;;;2.88;2.00;;;;;;;;;;5063767;27;20226;-54
2022/07/30 00:56:33;;;;;;;2.25;1.92;;;;;;;;;;5071138;27;20717;-53
2022/07/30 00:59:01;;;;;;;2.78;1.98;;;;;;;;;;5080078;27;20235;-51
2022/07/30 01:01:27;;;;;;;3.97;2.22;;;;;;;;;;5079851;27;20234;-52
2022/07/30 01:03:53;;;;;;;5.93;2.42;;;;;;;;;;5082031;27;20299;-52
2022/07/30 01:06:20;;;;;;;2.20;2.00;;;;;;;;;;5081531;27;20234;-52
2022/07/30 01:08:46;;;;;;;3.50;2.30;;;;;;;;;;5082298;27;20233;-52
2022/07/30 01:11:12;;;;;;;3.47;2.22;;;;;;;;;;5078887;27;20242;-52
2022/07/30 01:13:39;;;;;;;2.47;2.28;;;;;;;;;;5082052;27;20226;-53
2022/07/30 01:16:07;;;;;;;1.98;1.88;;;;;;;;;;5078305;27;20287;-53
2022/07/30 01:21:15;;;;;;;4.13;2.30;;;;;;;;;;5072716;27;20705;-53
2022/07/30 01:23:43;;;;;;;3.58;2.65;;;;;;;;;;5084709;27;20222;-53
2022/07/30 01:26:14;;;;;;;6.95;2.47;;;;;;;;;;5077025;27;20227;-53
2022/07/30 01:28:41;;;;;;;4.07;2.83;;;;;;;;;;5085360;28;20223;-52
2022/07/30 01:31:09;;;;;;;3.03;2.65;;;;;;;;;;5080203;28;20238;-52
2022/07/30 01:33:37;;;;;;;3.83;2.53;;;;;;;;;;5079885;28;20692;-53
2022/07/30 01:36:03;;;;;;;3.33;2.15;;;;;;;;;;5076778;27;20241;-53
2022/07/30 01:38:30;;;;;;;3.55;2.65;;;;;;;;;;5082812;27;20325;-53
2022/07/30 01:40:57;;;;;;;4.63;2.35;;;;;;;;;;5076909;27;20261;-52
2022/07/30 01:43:25;;;;;;;2.83;2.35;;;;;;;;;;5080766;28;20452;-51
2022/07/30 01:45:52;;;;;;;3.10;1.92;;;;;;;;;;5069113;27;20283;-51
2022/07/30 01:48:20;;;;;;;3.10;2.80;;;;;;;;;;5079695;27;20239;-52
2022/07/30 01:50:48;;;;;;;2.40;2.15;;;;;;;;;;5070730;27;20283;-54
2022/07/30 01:53:16;;;;;;;4.20;2.38;;;;;;;;;;5075211;27;20727;-54
2022/07/30 01:55:43;;;;;;;4.50;2.15;;;;;;;;;;5077401;27;20226;-52
2022/07/30 01:58:10;;;;;;;4.25;2.30;;;;;;;;;;5080696;27;20234;-53
2022/07/30 02:00:39;;;;;;;3.15;2.58;;;;;;;;;;5084141;28;20234;-52
2022/07/30 02:03:07;;;;;;;3.63;2.95;;;;;;;;;;5071830;27;20242;-51
2022/07/30 02:05:34;;;;;;;6.35;2.30;;;;;;;;;;5076368;27;20326;-52
2022/07/30 02:08:01;;;;;;;2.65;2.22;;;;;;;;;;5074247;27;20343;-53
2022/07/30 02:10:30;;;;;;;2.90;2.25;;;;;;;;;;5084723;27;20239;-52
2022/07/30 02:12:59;;;;;;;4.88;2.72;;;;;;;;;;5082577;27;20233;-52
2022/07/30 02:15:27;;;;;;;4.07;3.00;;;;;;;;;;5081785;27;20684;-51
2022/07/30 02:17:57;;;;;;;6.80;2.50;;;;;;;;;;5082772;27;20234;-52
2022/07/30 02:20:26;;;;;;;5.72;2.38;;;;;;;;;;5082560;28;20230;-52
2022/07/30 02:22:55;;;;;;;5.00;2.75;;;;;;;;;;5081686;27;20234;-53
2022/07/30 02:25:21;;;;;;;4.07;2.15;;;;;;;;;;5080530;27;20243;-53
2022/07/30 02:27:50;;;;;;;3.95;2.60;;;;;;;;;;5083869;27;20229;-53
2022/07/30 02:30:16;;;;;;;5.88;2.45;;;;;;;;;;5085142;27;20243;-52
2022/07/30 02:32:43;;;;;;;2.58;2.38;;;;;;;;;;5082610;27;20659;-52
2022/07/30 02:35:15;;;;;;;3.38;2.53;;;;;;;;;;5076059;27;20229;-51
2022/07/30 02:37:42;;;;;;;2.60;2.40;;;;;;;;;;5079396;27;20229;-53
2022/07/30 02:40:10;;;;;;;4.75;2.60;;;;;;;;;;5071696;27;20347;-52
2022/07/30 02:42:36;;;;;;;4.95;2.70;;;;;;;;;;5082422;27;20225;-52
2022/07/30 02:45:04;;;;;;;2.47;1.98;;;;;;;;;;5081039;27;20237;-53
2022/07/30 02:47:31;;;;;;;3.40;2.70;;;;;;;;;;5082337;27;20301;-53
2022/07/30 02:49:58;;;;;;;3.28;2.55;;;;;;;;;;5075893;28;20885;-53
2022/07/30 02:52:27;;;;;;;4.35;2.50;;;;;;;;;;5081128;27;20317;-53
2022/07/30 02:54:56;;;;;;;2.40;2.10;;;;;;;;;;5089040;27;20245;-53
2022/07/30 02:57:22;;;;;;;5.95;2.20;;;;;;;;;;5085267;27;20231;-53
2022/07/30 02:59:50;;;;;;;2.70;2.35;;;;;;;;;;5095002;27;20561;-53
2022/07/30 03:02:17;;;;;;;4.10;2.15;;;;;;;;;;5082120;27;20230;-53
2022/07/30 03:04:43;;;;;;;2.28;2.10;;;;;;;;;;5085970;27;20219;-53
2022/07/30 03:07:10;;;;;;;3.28;2.00;;;;;;;;;;5086027;27;20238;-53
2022/07/30 03:09:38;;;;;;;7.85;2.72;;;;;;;;;;5085894;28;20254;-53
2022/07/30 03:12:05;;;;;;;2.83;2.10;;;;;;;;;;5084009;27;20716;-53
2022/07/30 03:14:32;;;;;;;3.28;2.15;;;;;;;;;;5085837;27;20623;-53
2022/07/30 03:16:59;;;;;;;5.28;2.30;;;;;;;;;;5076444;27;20727;-53
2022/07/30 03:19:28;;;;;;;4.05;2.10;;;;;;;;;;5083036;27;20231;-53
2022/07/30 03:21:56;;;;;;;3.40;2.22;;;;;;;;;;5088436;27;20238;-53
2022/07/30 03:24:24;;;;;;;2.33;1.85;;;;;;;;;;5089190;27;20238;-53
2022/07/30 03:26:52;;;;;;;2.38;2.20;;;;;;;;;;5084928;27;20234;-53
2022/07/30 03:29:19;;;;;;;2.38;2.17;;;;;;;;;;5083120;28;20256;-53
2022/07/30 03:31:46;;;;;;;3.17;2.00;;;;;;;;;;5082893;27;20756;-53
2022/07/30 03:34:12;;;;;;;2.17;1.75;;;;;;;;;;5084194;27;20234;-53
2022/07/30 03:36:40;;;;;;;3.28;2.40;;;;;;;;;;5086651;27;20367;-54
2022/07/30 03:39:06;;;;;;;8.15;2.35;;;;;;;;;;5086244;27;20620;-53
2022/07/30 03:41:33;;;;;;;3.50;2.15;;;;;;;;;;5086318;27;20230;-54
2022/07/30 03:44:01;;;;;;;3.10;2.15;;;;;;;;;;5087330;27;20265;-52
2022/07/30 03:46:28;;;;;;;3.63;2.22;;;;;;;;;;5084239;27;20317;-52
2022/07/30 03:48:56;;;;;;;2.30;2.10;;;;;;;;;;5083252;27;20712;-52
2022/07/30 03:51:23;;;;;;;4.30;2.28;;;;;;;;;;5084284;27;20722;-52
2022/07/30 03:53:50;;;;;;;5.13;1.80;;;;;;;;;;5081557;27;20233;-51
2022/07/30 03:56:17;;;;;;;2.53;2.22;;;;;;;;;;5083552;27;20313;-52
2022/07/30 03:58:44;;;;;;;2.00;1.90;;;;;;;;;;5088202;27;20236;-52
2022/07/30 04:01:11;;;;;;;2.53;1.80;;;;;;;;;;5081806;27;20235;-52
2022/07/30 04:03:38;;;;;;;1.88;1.77;;;;;;;;;;5084800;27;20242;-52
2022/07/30 04:06:04;;;;;;;3.97;1.90;;;;;;;;;;5085008;27;20834;-52
2022/07/30 04:08:30;;;;;;;4.65;2.08;;;;;;;;;;5085464;27;20772;-53
2022/07/30 04:10:57;;;;;;;2.42;2.10;;;;;;;;;;5080483;27;20238;-52
2022/07/30 04:13:23;;;;;;;2.25;1.83;;;;;;;;;;5089938;27;20238;-52
2022/07/30 04:15:53;;;;;;;5.00;1.88;;;;;;;;;;5085597;27;20226;-52
2022/07/30 04:18:22;;;;;;;1.77;1.65;;;;;;;;;;5083123;27;20222;-52
2022/07/30 04:20:50;;;;;;;2.10;1.90;;;;;;;;;;5087734;27;20254;-53
2022/07/30 04:23:18;;;;;;;3.50;2.08;;;;;;;;;;5082239;27;20822;-51
2022/07/30 04:25:44;;;;;;;3.17;1.90;;;;;;;;;;5088927;27;20675;-52
2022/07/30 04:28:11;;;;;;;2.28;2.08;;;;;;;;;;5087259;27;20750;-53
2022/07/30 04:30:38;;;;;;;5.65;2.53;;;;;;;;;;5075998;27;20888;-53
2022/07/30 04:33:04;;;;;;;3.65;2.10;;;;;;;;;;5085242;27;20239;-51
2022/07/30 04:35:33;;;;;;;4.20;2.30;;;;;;;;;;5084094;27;20280;-56
2022/07/30 04:38:01;;;;;;;2.30;1.88;;;;;;;;;;5082698;27;20238;-51
2022/07/30 04:40:28;;;;;;;2.55;2.03;;;;;;;;;;5087259;28;20246;-53
2022/07/30 04:42:55;;;;;;;3.35;2.05;;;;;;;;;;5076266;27;20254;-53
2022/07/30 04:45:21;;;;;;;2.58;2.00;;;;;;;;;;5085404;27;20226;-51
2022/07/30 04:47:48;;;;;;;5.28;2.47;;;;;;;;;;5083997;27;20226;-52
2022/07/30 04:50:14;;;;;;;1.90;1.77;;;;;;;;;;5081680;27;20242;-53
2022/07/30 04:52:43;;;;;;;1.85;1.70;;;;;;;;;;5082868;27;20230;-53
2022/07/30 04:55:10;;;;;;;3.25;1.90;;;;;;;;;;5091870;27;20233;-52
2022/07/30 04:57:38;;;;;;;2.88;1.92;;;;;;;;;;5076821;27;20609;-53
2022/07/30 05:00:06;;;;;;;3.55;2.20;;;;;;;;;;5080599;27;20325;-51
2022/07/30 05:02:33;;;;;;;1.85;1.48;;;;;;;;;;5084279;27;20330;-53
2022/07/30 05:05:00;;;;;;;4.65;1.75;;;;;;;;;;5078120;27;20231;-51
2022/07/30 05:07:27;;;;;;;1.80;1.70;;;;;;;;;;5080968;28;20245;-53
2022/07/30 05:09:54;;;;;;;4.45;2.40;;;;;;;;;;5074623;27;20258;-53
2022/07/30 05:12:21;;;;;;;4.13;2.05;;;;;;;;;;5080122;27;20344;-51
2022/07/30 05:14:47;;;;;;;2.65;2.10;;;;;;;;;;5082862;27;20288;-52
2022/07/30 05:17:13;;;;;;;2.15;1.70;;;;;;;;;;5083470;27;20233;-53
2022/07/30 05:19:40;;;;;;;2.17;1.92;;;;;;;;;;5085359;27;20242;-53
2022/07/30 05:22:06;;;;;;;1.67;1.55;;;;;;;;;;5085398;27;20238;-52
2022/07/30 05:24:32;;;;;;;2.60;1.63;;;;;;;;;;5090874;27;20233;-53
2022/07/30 05:27:00;;;;;;;2.45;1.60;;;;;;;;;;5083449;28;20242;-52
2022/07/30 05:29:26;;;;;;;3.67;1.90;;;;;;;;;;5080336;27;20242;-51
2022/07/30 05:31:53;;;;;;;1.83;1.60;;;;;;;;;;5078220;27;20773;-52
2022/07/30 05:34:19;;;;;;;1.88;1.75;;;;;;;;;;5082351;27;20783;-51
2022/07/30 05:36:46;;;;;;;3.75;1.70;;;;;;;;;;5079263;27;20226;-52
2022/07/30 05:39:12;;;;;;;3.92;1.90;;;;;;;;;;5083900;27;20608;-52
2022/07/30 05:41:38;;;;;;;2.47;1.70;;;;;;;;;;5082688;27;20261;-52
2022/07/30 05:44:06;;;;;;;3.78;1.77;;;;;;;;;;5071204;27;20226;-52
2022/07/30 05:46:33;;;;;;;3.13;1.85;;;;;;;;;;5075504;27;20703;-52
2022/07/30 05:48:59;;;;;;;5.35;2.40;;;;;;;;;;5085430;27;20235;-53
2022/07/30 05:51:25;;;;;;;4.47;1.88;;;;;;;;;;5075591;27;20780;-53
2022/07/30 05:53:52;;;;;;;2.25;2.05;;;;;;;;;;5081738;27;20234;-53
2022/07/30 05:56:18;;;;;;;4.93;2.00;;;;;;;;;;5084788;27;20238;-52
2022/07/30 05:58:44;;;;;;;3.28;2.20;;;;;;;;;;5080079;27;20227;-53
2022/07/30 06:01:12;;;;;;;1.77;1.55;;;;;;;;;;5078433;27;20382;-52
2022/07/30 06:03:38;;;;;;;8.02;2.03;;;;;;;;;;5078167;27;20226;-52
2022/07/30 06:06:05;;;;;;;2.20;2.00;;;;;;;;;;5078119;27;20234;-52
2022/07/30 06:08:31;;;;;;;4.18;1.80;;;;;;;;;;5086023;27;20226;-54
2022/07/30 06:10:58;;;;;;;2.45;2.00;;;;;;;;;;5090716;27;20233;-52
2022/07/30 06:13:24;;;;;;;3.70;1.85;;;;;;;;;;5075168;28;20231;-53
2022/07/30 06:15:51;;;;;;;2.42;1.67;;;;;;;;;;5083980;27;20234;-52
2022/07/30 06:18:19;;;;;;;1.90;1.70;;;;;;;;;;5087242;27;20229;-53
2022/07/30 06:20:45;;;;;;;2.15;1.90;;;;;;;;;;5084579;27;20254;-52
2022/07/30 06:23:12;;;;;;;1.75;1.65;;;;;;;;;;5082137;27;20238;-52
2022/07/30 06:25:38;;;;;;;3.30;2.10;;;;;;;;;;5080813;27;20635;-53
2022/07/30 06:28:04;;;;;;;4.63;2.22;;;;;;;;;;5074663;27;20240;-53
2022/07/30 06:30:31;;;;;;;1.88;1.77;;;;;;;;;;5085182;27;20321;-52
2022/07/30 06:32:57;;;;;;;1.90;1.70;;;;;;;;;;5088353;27;20313;-52
2022/07/30 06:35:25;;;;;;;2.20;2.00;;;;;;;;;;5088340;27;20245;-52
2022/07/30 06:37:51;;;;;;;6.85;1.90;;;;;;;;;;5086523;27;20234;-52
2022/07/30 06:40:17;;;;;;;4.07;2.65;;;;;;;;;;5086443;27;20427;-52
2022/07/30 06:42:44;;;;;;;2.20;1.75;;;;;;;;;;5081151;27;20241;-52
2022/07/30 06:45:11;;;;;;;1.92;1.73;;;;;;;;;;5088671;27;20234;-52
2022/07/30 06:47:37;;;;;;;3.20;1.90;;;;;;;;;;5082540;27;20710;-52
2022/07/30 06:50:03;;;;;;;4.03;2.10;;;;;;;;;;5084397;27;20235;-52
2022/07/30 06:52:31;;;;;;;2.83;1.95;;;;;;;;;;5079383;27;20744;-52
2022/07/30 06:54:58;;;;;;;2.55;2.20;;;;;;;;;;5089736;27;20223;-53
2022/07/30 06:57:24;;;;;;;2.13;1.95;;;;;;;;;;5082760;27;20229;-52
2022/07/30 06:59:50;;;;;;;1.90;1.70;;;;;;;;;;5077805;28;20241;-52
2022/07/30 07:02:17;;;;;;;2.28;1.63;;;;;;;;;;5086538;28;20235;-52
2022/07/30 07:04:43;;;;;;;4.70;2.17;;;;;;;;;;5086210;27;20234;-51
2022/07/30 07:07:09;;;;;;;1.95;1.70;;;;;;;;;;5087865;28;20234;-53
2022/07/30 07:09:37;;;;;;;3.38;1.92;;;;;;;;;;5076940;28;20223;-53
2022/07/30 07:12:03;;;;;;;4.25;1.73;;;;;;;;;;5085011;27;20453;-51
2022/07/30 07:14:30;;;;;;;2.95;1.92;;;;;;;;;;5080944;27;20719;-52
2022/07/30 07:16:56;;;;;;;3.40;1.58;;;;;;;;;;5086490;27;20234;-52
2022/07/30 07:19:23;;;;;;;4.20;1.70;;;;;;;;;;5087320;27;20235;-52
2022/07/30 07:21:49;;;;;;;6.65;2.05;;;;;;;;;;5078610;27;20342;-53
2022/07/30 07:24:15;;;;;;;2.55;1.50;;;;;;;;;;5081303;27;20250;-52
2022/07/30 07:26:43;;;;;;;4.88;1.80;;;;;;;;;;5082754;27;20325;-52
2022/07/30 07:29:09;;;;;;;5.10;1.77;;;;;;;;;;5086409;27;20230;-53
2022/07/30 07:31:36;;;;;;;8.95;2.10;;;;;;;;;;5080779;27;20237;-52
2022/07/30 07:34:02;;;;;;;2.28;2.08;;;;;;;;;;5087578;27;20242;-52
2022/07/30 07:36:28;;;;;;;2.58;1.90;;;;;;;;;;5089932;27;20314;-52
2022/07/30 07:38:55;;;;;;;2.92;1.58;;;;;;;;;;5082181;27;20230;-53
2022/07/30 07:41:21;;;;;;;12.63;1.95;;;;;;;;;;5081756;27;20670;-52
2022/07/30 07:43:49;;;;;;;1.58;1.42;;;;;;;;;;5081215;27;20716;-53
2022/07/30 07:46:16;;;;;;;2.00;1.55;;;;;;;;;;5085002;28;20230;-54
2022/07/30 07:48:43;;;;;;;4.63;1.77;;;;;;;;;;5081011;27;20222;-52
2022/07/30 07:51:09;;;;;;;6.65;1.88;;;;;;;;;;5080578;27;20231;-52
2022/07/30 07:53:35;;;;;;;2.33;1.67;;;;;;;;;;5082810;27;20627;-52
2022/07/30 07:56:02;;;;;;;2.90;1.63;;;;;;;;;;5085061;27;20610;-51
2022/07/30 07:58:28;;;;;;;3.38;1.85;;;;;;;;;;5076145;27;20310;-53
2022/07/30 08:00:55;;;;;;;2.65;2.00;;;;;;;;;;5080161;27;20708;-52
2022/07/30 08:03:22;;;;;;;1.98;1.80;;;;;;;;;;5084198;28;20662;-53
2022/07/30 08:05:48;;;;;;;2.63;1.50;;;;;;;;;;5082720;28;20307;-54
2022/07/30 08:08:15;;;;;;;2.85;2.08;;;;;;;;;;5081613;27;20231;-53
2022/07/30 08:10:41;;;;;;;3.53;1.98;;;;;;;;;;5083850;27;20242;-51
2022/07/30 08:13:08;;;;;;;1.70;1.45;;;;;;;;;;5087931;27;20230;-54
2022/07/30 08:15:34;;;;;;;2.80;1.98;;;;;;;;;;5082361;27;20223;-52
2022/07/30 08:18:02;;;;;;;3.33;1.90;;;;;;;;;;5093348;27;20226;-52
2022/07/30 08:20:29;;;;;;;2.13;1.55;;;;;;;;;;5074834;27;20231;-52
2022/07/30 08:22:55;;;;;;;1.63;1.42;;;;;;;;;;5080104;27;20227;-52
2022/07/30 08:25:22;;;;;;;1.77;1.65;;;;;;;;;;5080675;27;20235;-52
2022/07/30 08:27:48;;;;;;;2.85;1.75;;;;;;;;;;5081050;27;20272;-54
2022/07/30 08:30:15;;;;;;;2.30;2.10;;;;;;;;;;5084755;27;20232;-52
2022/07/30 08:32:41;;;;;;;2.10;1.80;;;;;;;;;;5081167;27;20241;-52
2022/07/30 08:35:09;;;;;;;4.07;2.30;;;;;;;;;;5084562;27;20237;-53
2022/07/30 08:37:36;;;;;;;4.63;2.08;;;;;;;;;;5085131;27;20236;-53
2022/07/30 08:40:03;;;;;;;2.10;1.55;;;;;;;;;;5088639;27;20226;-53
2022/07/30 08:42:30;;;;;;;1.60;1.50;;;;;;;;;;5081186;27;20222;-52
2022/07/30 08:44:57;;;;;;;2.97;1.58;;;;;;;;;;5090460;27;20231;-53
2022/07/30 08:47:26;;;;;;;4.00;1.90;;;;;;;;;;5094320;27;20241;-52
2022/07/30 08:49:52;;;;;;;2.65;1.65;;;;;;;;;;5087245;27;20234;-52
2022/07/30 08:52:20;;;;;;;2.05;1.85;;;;;;;;;;5087845;27;20226;-53
2022/07/30 08:54:46;;;;;;;2.15;1.60;;;;;;;;;;5078246;27;20259;-53
2022/07/30 08:57:13;;;;;;;3.10;1.95;;;;;;;;;;5082029;27;20232;-52
2022/07/30 08:59:40;;;;;;;3.00;1.95;;;;;;;;;;5092261;27;20226;-51
2022/07/30 09:02:07;;;;;;;2.45;1.73;;;;;;;;;;5079472;27;20668;-52
2022/07/30 09:04:33;;;;;;;1.77;1.60;;;;;;;;;;5082771;27;20226;-52
2022/07/30 09:07:01;;;;;;;2.10;1.90;;;;;;;;;;5081179;27;20235;-52
2022/07/30 09:09:28;;;;;;;1.73;1.63;;;;;;;;;;5082914;27;20226;-52
2022/07/30 09:11:55;;;;;;;3.28;2.10;;;;;;;;;;5079576;28;20241;-51
2022/07/30 09:14:21;;;;;;;4.25;1.98;;;;;;;;;;5074409;27;20241;-53
2022/07/30 09:16:55;;;;;;;1.70;1.60;;;;;;;;;;5080269;27;20225;-51
2022/07/30 09:19:22;;;;;;;3.30;1.80;;;;;;;;;;5084569;27;20271;-52
2022/07/30 09:22:05;;;;;;;2.25;1.75;;;;;;;;;;5070284;27;20231;-52
2022/07/30 09:24:41;;;;;;;2.05;1.90;;;;;;;;;;5073701;27;20274;-53
2022/07/30 09:27:08;;;;;;;1.60;1.50;;;;;;;;;;5071045;27;20232;-52
2022/07/30 09:29:35;;;;;;;2.45;1.95;;;;;;;;;;5076329;27;20262;-51
2022/07/30 09:32:02;;;;;;;4.68;2.20;;;;;;;;;;5082602;27;20607;-52
2022/07/30 09:34:29;;;;;;;4.18;2.03;;;;;;;;;;5082530;27;20226;-52
2022/07/30 09:36:56;;;;;;;2.47;1.85;;;;;;;;;;5074754;27;20733;-52
2022/07/30 09:39:32;;;;;;;3.78;2.20;;;;;;;;;;5081672;27;20241;-52
2022/07/30 09:42:00;;;;;;;2.53;1.73;;;;;;;;;;5079129;27;20230;-52
2022/07/30 09:44:29;;;;;;;1.88;1.63;;;;;;;;;;5091735;27;20233;-51
2022/07/30 09:46:55;;;;;;;1.48;1.38;;;;;;;;;;5078358;27;20226;-53
2022/07/30 09:49:22;;;;;;;2.15;1.48;;;;;;;;;;5085724;27;20723;-53
2022/07/30 09:51:49;;;;;;;3.10;2.30;;;;;;;;;;5072480;28;20510;-52
2022/07/30 09:54:15;;;;;;;2.08;1.70;;;;;;;;;;5080639;27;20234;-53
2022/07/30 09:56:42;;;;;;;2.03;1.58;;;;;;;;;;5080734;27;20242;-53
2022/07/30 09:59:24;;;;;;;1.83;1.73;;;;;;;;;;5082786;27;20241;-53
2022/07/30 10:01:52;;;;;;;1.98;1.88;;;;;;;;;;5081984;27;20233;-52
2022/07/30 10:04:23;;;;;;;2.08;1.98;;;;;;;;;;5078297;27;20257;-53
2022/07/30 10:06:49;;;;;;;4.50;2.05;;;;;;;;;;5069038;27;20227;-52
2022/07/30 10:09:24;;;;;;;2.25;1.70;;;;;;;;;;5078505;27;20254;-51
2022/07/30 10:11:50;;;;;;;3.45;2.05;;;;;;;;;;5079882;27;20234;-51
2022/07/30 10:14:18;;;;;;;3.03;1.75;;;;;;;;;;5084767;27;20248;-51
2022/07/30 10:16:45;;;;;;;4.35;1.98;;;;;;;;;;5077905;27;20234;-53
2022/07/30 10:19:12;;;;;;;4.35;2.25;;;;;;;;;;5062989;27;20226;-53
2022/07/30 10:21:38;;;;;;;2.95;2.03;;;;;;;;;;5071304;28;20606;-54
2022/07/30 10:24:06;;;;;;;3.78;1.90;;;;;;;;;;5077968;28;20716;-51
2022/07/30 10:26:33;;;;;;;2.63;1.90;;;;;;;;;;5079849;27;20231;-52
2022/07/30 10:29:00;;;;;;;3.03;1.70;;;;;;;;;;5088571;27;20226;-52
2022/07/30 10:31:28;;;;;;;1.70;1.60;;;;;;;;;;5077600;27;20238;-53
2022/07/30 10:33:55;;;;;;;3.28;1.70;;;;;;;;;;5085272;27;20231;-52
2022/07/30 10:36:21;;;;;;;2.50;1.58;;;;;;;;;;5086696;27;20238;-51
2022/07/30 10:38:48;;;;;;;1.80;1.50;;;;;;;;;;5084124;27;20234;-53
2022/07/30 10:41:23;;;;;;;2.95;1.80;;;;;;;;;;5084294;27;20242;-51
2022/07/30 10:43:55;;;;;;;2.75;1.67;;;;;;;;;;5089682;27;20222;-53
2022/07/30 10:46:26;;;;;;;1.60;1.50;;;;;;;;;;5076121;28;20445;-52
2022/07/30 10:48:56;;;;;;;4.38;1.85;;;;;;;;;;5074943;27;20598;-51
2022/07/30 10:51:22;;;;;;;3.22;1.60;;;;;;;;;;5078228;27;20250;-53
2022/07/30 10:53:48;;;;;;;3.00;2.05;;;;;;;;;;5082411;27;20741;-53
2022/07/30 10:56:17;;;;;;;2.75;2.40;;;;;;;;;;5075478;27;20222;-52
2022/07/30 10:59:03;;;;;;;4.60;1.60;;;;;;;;;;5083311;27;20261;-52
2022/07/30 11:01:48;;;;;;;1.90;1.50;;;;;;;;;;5079482;27;20238;-52
2022/07/30 11:04:19;;;;;;;2.45;1.58;;;;;;;;;;5079940;27;20247;-52
2022/07/30 11:06:45;;;;;;;1.73;1.63;;;;;;;;;;5086859;27;20237;-52
2022/07/30 11:09:30;;;;;;;3.38;1.85;;;;;;;;;;5069110;27;20231;-52
2022/07/30 11:11:56;;;;;;;1.52;1.42;;;;;;;;;;5087938;27;20226;-51
2022/07/30 11:14:43;;;;;;;1.58;1.40;;;;;;;;;;5082539;27;20235;-52
2022/07/30 11:17:09;;;;;;;7.55;1.20;;;;;;;;;;5080097;27;20240;-54
2022/07/30 11:19:57;;;;;;;1.65;1.55;;;;;;;;;;5080831;27;20242;-52
2022/07/30 11:22:25;;;;;;;1.30;1.20;;;;;;;;;;5080058;27;20230;-52
2022/07/30 11:24:51;;;;;;;4.30;1.60;;;;;;;;;;5076808;27;20319;-52
2022/07/30 11:27:34;;;;;;;1.67;1.40;;;;;;;;;;5082074;27;20230;-53
2022/07/30 11:30:01;;;;;;;2.75;1.45;;;;;;;;;;5086842;27;20233;-52
2022/07/30 11:32:29;;;;;;;3.35;1.55;;;;;;;;;;5084957;27;20250;-51
2022/07/30 11:35:13;;;;;;;2.85;1.60;;;;;;;;;;5089783;27;20230;-51
2022/07/30 11:37:54;;;;;;;6.32;1.60;;;;;;;;;;5078235;27;20238;-52
2022/07/30 11:40:22;;;;;;;4.30;1.65;;;;;;;;;;5080871;27;20226;-53
2022/07/30 11:42:49;;;;;;;1.58;1.48;;;;;;;;;;5090557;27;20222;-53
2022/07/30 11:45:31;;;;;;;2.92;1.60;;;;;;;;;;5087100;27;20227;-52
2022/07/30 11:48:00;;;;;;;2.63;1.30;;;;;;;;;;5080394;27;20956;-52
2022/07/30 11:50:28;;;;;;;3.03;1.65;;;;;;;;;;5067527;27;20968;-52
2022/07/30 11:52:55;;;;;;;2.40;1.50;;;;;;;;;;5076376;27;20238;-53
2022/07/30 11:55:22;;;;;;;4.15;1.75;;;;;;;;;;5081421;27;20241;-53
2022/07/30 11:57:48;;;;;;;4.60;1.67;;;;;;;;;;5077562;27;20237;-52
2022/07/30 12:00:17;;;;;;;1.90;1.40;;;;;;;;;;5073866;27;20231;-53
2022/07/30 12:02:43;;;;;;;2.35;1.00;;;;;;;;;;5069713;27;20654;-52
2022/07/30 12:05:10;;;;;;;2.13;1.20;;;;;;;;;;5078337;27;20230;-53
2022/07/30 12:07:37;;;;;;;4.32;1.40;;;;;;;;;;5079787;27;20231;-52
2022/07/30 12:10:13;;;;;;;1.50;1.40;;;;;;;;;;5087745;27;20233;-56
2022/07/30 12:12:40;;;;;;;3.25;1.20;;;;;;;;;;5089433;27;20996;-52
2022/07/30 12:15:07;;;;;;;1.58;1.13;;;;;;;;;;5087060;27;20246;-52
2022/07/30 12:17:40;;;;;;;2.65;1.42;;;;;;;;;;5090574;27;20239;-51
2022/07/30 12:20:14;;;;;;;1.80;1.60;;;;;;;;;;5075197;28;20306;-52
2022/07/30 12:22:42;;;;;;;1.55;1.30;;;;;;;;;;5070206;27;20229;-53
2022/07/30 12:25:09;;;;;;;2.15;1.92;;;;;;;;;;5086534;28;20227;-53
2022/07/30 12:27:35;;;;;;;1.40;1.30;;;;;;;;;;5085685;27;20234;-53
2022/07/30 12:30:02;;;;;;;1.65;1.38;;;;;;;;;;5087849;27;20230;-53
2022/07/30 12:32:30;;;;;;;1.30;1.00;;;;;;;;;;5084650;27;20227;-52
2022/07/30 12:34:57;;;;;;;1.63;1.40;;;;;;;;;;5067463;28;20240;-52
2022/07/30 12:37:23;;;;;;;5.53;2.00;;;;;;;;;;5073259;27;20234;-53
2022/07/30 12:40:04;;;;;;;1.38;1.27;;;;;;;;;;5078507;27;20237;-52
2022/07/30 12:42:30;;;;;;;1.58;1.23;;;;;;;;;;5087971;27;20237;-53
2022/07/30 12:44:57;;;;;;;4.47;1.67;;;;;;;;;;5086524;27;20254;-52
2022/07/30 12:47:24;;;;;;;1.15;1.15;;;;;;;;;;5084970;27;20238;-53
2022/07/30 12:49:51;;;;;;;1.20;1.20;;;;;;;;;;5070426;27;20223;-53
2022/07/30 12:52:21;;;;;;;2.42;1.60;;;;;;;;;;5077261;27;20230;-53
2022/07/30 12:54:57;;;;;;;1.83;1.55;;;;;;;;;;5079760;27;20238;-52
2022/07/30 12:57:23;;;;;;;3.10;1.38;;;;;;;;;;5087146;27;20240;-51
2022/07/30 13:00:00;;;;;;;1.63;1.20;;;;;;;;;;5096390;27;20222;-52
2022/07/30 13:02:30;;;;;;;3.35;1.42;;;;;;;;;;5081780;27;20230;-53
2022/07/30 13:04:57;;;;;;;4.35;1.17;;;;;;;;;;5086100;28;20233;-52
2022/07/30 13:07:27;;;;;;;2.05;1.10;;;;;;;;;;5081535;28;20230;-52
2022/07/30 13:10:07;;;;;;;1.40;1.30;;;;;;;;;;5092531;27;20234;-54
2022/07/30 13:12:33;;;;;;;1.20;1.10;;;;;;;;;;5099492;27;20229;-52
2022/07/30 13:15:00;;;;;;;3.28;1.30;;;;;;;;;;5085398;27;20226;-52
2022/07/30 13:17:26;;;;;;;1.70;1.30;;;;;;;;;;5088317;27;20231;-51
2022/07/30 13:19:52;;;;;;;1.40;1.25;;;;;;;;;;5073071;27;20231;-52
2022/07/30 13:22:19;;;;;;;1.67;1.58;;;;;;;;;;5079500;27;20622;-52
2022/07/30 13:24:45;;;;;;;1.40;1.30;;;;;;;;;;5080570;27;20227;-51
2022/07/30 13:27:15;;;;;;;2.42;1.63;;;;;;;;;;5068546;27;20246;-53
2022/07/30 13:29:41;;;;;;;2.92;1.45;;;;;;;;;;5086846;27;20314;-51
2022/07/30 13:32:08;;;;;;;1.52;1.42;;;;;;;;;;5071193;27;20227;-52
2022/07/30 13:34:34;;;;;;;1.45;1.35;;;;;;;;;;5072320;28;20242;-52
2022/07/30 13:37:00;;;;;;;3.30;1.70;;;;;;;;;;5070906;28;20230;-52
2022/07/30 13:39:27;;;;;;;2.92;1.58;;;;;;;;;;5069072;28;20237;-52
2022/07/30 13:41:53;;;;;;;1.63;1.38;;;;;;;;;;5074314;28;20243;-53
2022/07/30 13:44:20;;;;;;;2.00;1.73;;;;;;;;;;5090996;27;20295;-52
2022/07/30 13:46:47;;;;;;;4.38;1.42;;;;;;;;;;5090752;27;20277;-52
2022/07/30 13:49:13;;;;;;;4.43;1.50;;;;;;;;;;5087339;27;20242;-56
2022/07/30 13:51:40;;;;;;;3.10;1.77;;;;;;;;;;5081383;27;20234;-54
2022/07/30 13:54:07;;;;;;;2.15;1.77;;;;;;;;;;5089393;27;20234;-53
2022/07/30 13:56:33;;;;;;;1.30;1.20;;;;;;;;;;5082879;27;20230;-53
2022/07/30 13:58:59;;;;;;;2.50;1.15;;;;;;;;;;5088254;27;20230;-52
2022/07/30 14:01:27;;;;;;;1.92;1.30;;;;;;;;;;5085908;27;20238;-53
2022/07/30 14:03:53;;;;;;;4.20;1.20;;;;;;;;;;5078487;27;20241;-52
2022/07/30 14:06:20;;;;;;;1.75;1.60;;;;;;;;;;5076930;28;20230;-52
2022/07/30 14:08:46;;;;;;;2.70;1.48;;;;;;;;;;5094079;27;20234;-53
2022/07/30 14:11:12;;;;;;;2.50;1.20;;;;;;;;;;5112942;27;20297;-52
2022/07/30 14:13:39;;;;;;;1.65;1.45;;;;;;;;;;5093615;27;20242;-52
2022/07/30 14:16:05;;;;;;;1.67;1.58;;;;;;;;;;5086530;28;20238;-53
2022/07/30 14:18:33;;;;;;;2.22;1.55;;;;;;;;;;5090886;27;20241;-52
2022/07/30 14:21:00;;;;;;;1.85;1.17;;;;;;;;;;5071720;27;20242;-52
2022/07/30 14:23:29;;;;;;;5.75;1.65;;;;;;;;;;5079163;27;20234;-52
2022/07/30 14:25:55;;;;;;;2.63;1.60;;;;;;;;;;5084481;27;20783;-52
2022/07/30 14:28:22;;;;;;;2.50;1.60;;;;;;;;;;5085869;27;20226;-53
2022/07/30 14:30:48;;;;;;;2.88;1.73;;;;;;;;;;5084415;27;20249;-53
2022/07/30 14:33:15;;;;;;;1.80;1.58;;;;;;;;;;5070095;27;20650;-52
2022/07/30 14:35:42;;;;;;;2.60;1.42;;;;;;;;;;5073655;27;20238;-52
2022/07/30 14:38:09;;;;;;;1.60;1.50;;;;;;;;;;5077274;27;20237;-53
2022/07/30 14:40:35;;;;;;;1.63;1.52;;;;;;;;;;5068773;28;20235;-54
2022/07/30 14:43:01;;;;;;;1.45;1.35;;;;;;;;;;5069948;28;20260;-52
2022/07/30 14:45:28;;;;;;;1.60;1.50;;;;;;;;;;5077700;27;20236;-51
2022/07/30 14:47:55;;;;;;;4.07;1.65;;;;;;;;;;5074409;27;20234;-53